Jin Tao — VRJM9 — position and weather

sailwx.info

Track history (hours):
 
Tides and Currents Weather Stations Pressure Air Temp Water Temp Dewpoint Dewpoint Depression Visibility Wind Speed Wind Dir Waves Ship Positions

Jin Tao

Last reported at 2018-Jun-04 19:09 UTC. Time now 2018-Jun-19 10:25 UTC.
Position N 01°21' E 103°17'.
Warning: this ship's position is 14 days out of date.

Length 190 m; draft 11.9 m.

Type: Cargo ship. MMSI: 477766200.

Date/timePositionNaut miles runAvg speedWind from/ knotsBaromVisibWave heightAir tempDewpointWater temp
2018-Jun-04 19:09N 01°21' E 103°17'512.4
2018-Jun-04 18:47N 01°18' E 103°21'412.3
2018-Jun-04 18:27N 01°15' E 103°24'612.2
2018-Jun-04 17:58N 01°13' E 103°30'612.7
2018-Jun-04 17:30N 01°12' E 103°35'611.8
2018-Jun-04 17:00N 01°10' E 103°41'511.1
2018-Jun-04 16:30N 01°09' E 103°46'612.0
2018-Jun-04 15:59N 01°12' E 103°52'3 6.6
2018-Jun-04 15:30N 01°14' E 103°54'1 2.1
2018-Jun-04 15:00N 01°15' E 103°53'0 0.0
2018-Jun-04 14:13N 01°15' E 103°53'0 0.0
2018-Jun-04 13:55N 01°15' E 103°53'0 0.0
2018-Jun-04 13:30N 01°15' E 103°53'0 0.0
2018-Jun-04 13:00N 01°15' E 103°53'0 0.0
2018-Jun-04 12:22N 01°15' E 103°53'0 0.0
2018-Jun-04 11:55N 01°15' E 103°53'0 0.0
2018-Jun-04 11:28N 01°15' E 103°53'0 0.0
2018-Jun-04 10:58N 01°15' E 103°53'0 0.0
2018-Jun-04 10:25N 01°15' E 103°53'0 0.0
2018-Jun-04 09:58N 01°15' E 103°53'0 0.1
2018-Jun-04 09:10N 01°15' E 103°53'0 0.2
2018-Jun-04 08:46N 01°15' E 103°54'0 0.0
2018-Jun-04 08:25N 01°15' E 103°54'0 0.1
2018-Jun-04 07:49N 01°15' E 103°54'0 0.0
2018-Jun-04 07:28N 01°15' E 103°54'0 0.0
2018-Jun-04 06:58N 01°15' E 103°54'0 0.1
2018-Jun-04 06:28N 01°15' E 103°54'0 0.0
2018-Jun-04 05:58N 01°15' E 103°54'0 0.0
2018-Jun-04 05:28N 01°15' E 103°54'0 0.0
2018-Jun-04 05:00N 01°15' E 103°54'0 0.1
2018-Jun-04 04:25N 01°15' E 103°53'0 0.0
2018-Jun-04 03:57N 01°15' E 103°53'0 0.0
2018-Jun-04 03:24N 01°15' E 103°53'0 0.1
2018-Jun-04 02:52N 01°15' E 103°53'0 0.0
2018-Jun-04 02:28N 01°15' E 103°53'0 0.1
2018-Jun-04 01:55N 01°15' E 103°53'0 0.0
2018-Jun-04 01:30N 01°15' E 103°53'0 0.1
2018-Jun-04 00:55N 01°15' E 103°54'0 0.0
2018-Jun-04 00:28N 01°15' E 103°54'0 0.0
2018-Jun-03 23:52N 01°15' E 103°54'0 0.2
2018-Jun-03 23:28N 01°15' E 103°54'0 0.0
2018-Jun-03 22:58N 01°15' E 103°54'0 0.1
2018-Jun-03 22:22N 01°15' E 103°54'0 0.3
2018-Jun-03 22:01N 01°15' E 103°54'2 3.0
2018-Jun-03 21:29N 01°14' E 103°54'1 2.5
2018-Jun-03 20:59N 01°14' E 103°55'3 6.4
2018-Jun-03 20:30N 01°15' E 103°58'5 8.0
2018-Jun-03 19:54N 01°16' E 104°03'4 8.7
2018-Jun-03 19:28N 01°16' E 104°07'4 8.7
2018-Jun-03 19:00N 01°17' E 104°11'4 8.7
2018-Jun-03 18:30N 01°18' E 104°15'5 8.8
2018-Jun-03 17:57N 01°19' E 104°20'4 9.3
2018-Jun-03 17:30N 01°22' E 104°23'  
2018-May-29 09:56N 23°18' E 117°28'512.1
2018-May-29 09:30N 23°22' E 117°32'812.2
2018-May-29 08:52N 23°25' E 117°39'512.5
2018-May-29 08:30N 23°29' E 117°43'712.6
2018-May-29 07:59N 23°33' E 117°48'712.6
2018-May-29 07:26N 23°37' E 117°55'612.8
2018-May-29 07:00N 23°40' E 117°59'712.8
2018-May-29 06:26N 23°45' E 118°05'  
2018-May-27 01:45N 31°28' E 121°28'310.6
2018-May-27 01:30N 31°29' E 121°25'2 3.9
2018-May-27 00:59N 31°30' E 121°23'0 0.0
2018-May-27 00:30N 31°30' E 121°23'0 0.0
2018-May-27 00:00N 31°30' E 121°23'0 0.0
2018-May-26 23:25N 31°30' E 121°23'0 0.0
2018-May-26 22:58N 31°30' E 121°23'0 0.0
2018-May-26 22:28N 31°30' E 121°23'0 0.0
2018-May-26 21:58N 31°30' E 121°23'0 0.0
2018-May-26 21:25N 31°30' E 121°23'0 0.0
2018-May-26 20:46N 31°30' E 121°23'0 0.0
2018-May-26 20:25N 31°30' E 121°23'0 0.0
2018-May-26 19:55N 31°30' E 121°23'0 0.0
2018-May-26 19:25N 31°30' E 121°23'0 0.0
2018-May-26 18:55N 31°30' E 121°23'0 0.0
2018-May-26 18:25N 31°30' E 121°23'0 0.0
2018-May-26 17:58N 31°30' E 121°23'0 0.0
2018-May-26 17:28N 31°30' E 121°23'0 0.0
2018-May-26 16:58N 31°30' E 121°23'0 0.0
2018-May-26 16:28N 31°30' E 121°23'0 0.0
2018-May-26 15:55N 31°30' E 121°23'0 0.0
2018-May-26 15:28N 31°30' E 121°23'0 0.0
2018-May-26 14:49N 31°30' E 121°23'0 0.0
2018-May-26 14:25N 31°30' E 121°23'0 0.0
2018-May-26 13:58N 31°30' E 121°23'0 0.0
2018-May-26 13:28N 31°30' E 121°23'0 0.0
2018-May-26 12:58N 31°30' E 121°23'0 0.0
2018-May-26 12:28N 31°30' E 121°23'0 0.0
2018-May-26 11:55N 31°30' E 121°23'0 0.0
2018-May-26 11:25N 31°30' E 121°23'0 0.0
2018-May-26 10:58N 31°30' E 121°23'0 0.0
2018-May-26 10:25N 31°30' E 121°23'0 0.0
2018-May-26 09:58N 31°30' E 121°23'0 0.0
2018-May-26 09:28N 31°30' E 121°23'0 0.0
2018-May-26 08:58N 31°30' E 121°23'0 0.0
2018-May-26 08:25N 31°30' E 121°23'0 0.0
2018-May-26 07:58N 31°30' E 121°23'0 0.0
2018-May-26 07:25N 31°30' E 121°23'0 0.0
2018-May-26 06:58N 31°30' E 121°23'0 0.0
2018-May-26 06:28N 31°30' E 121°23'0 0.0
2018-May-26 05:28N 31°30' E 121°23'0 0.0
2018-May-26 04:58N 31°30' E 121°23'0 0.0
2018-May-26 04:28N 31°30' E 121°23'0 0.0
2018-May-26 03:55N 31°30' E 121°23'0 0.0
2018-May-26 03:25N 31°30' E 121°23'0 0.0
2018-May-26 02:55N 31°30' E 121°23'0 0.0
2018-May-26 02:28N 31°30' E 121°23'0 0.0
2018-May-26 01:59N 31°30' E 121°23'0 0.0
2018-May-26 01:25N 31°30' E 121°23'0 0.0
2018-May-26 00:55N 31°30' E 121°23'0 0.0
2018-May-26 00:25N 31°30' E 121°23'0 0.0
2018-May-25 23:55N 31°30' E 121°23'0 0.0
2018-May-25 23:28N 31°30' E 121°23'0 0.0
2018-May-25 22:58N 31°30' E 121°23'0 0.0
2018-May-25 22:25N 31°30' E 121°23'0 0.0
2018-May-25 21:58N 31°30' E 121°23'0 0.0
2018-May-25 21:28N 31°30' E 121°23'0 0.0
2018-May-25 20:55N 31°30' E 121°23'0 0.0
2018-May-25 20:28N 31°30' E 121°23'0 0.0
2018-May-25 19:55N 31°30' E 121°23'0 0.0
2018-May-25 19:19N 31°30' E 121°23'  
Track history (hours):
 
Tides and Currents Weather Stations Pressure Air Temp Water Temp Dewpoint Dewpoint Depression Visibility Wind Speed Wind Dir Waves Ship Positions

Jin Tao

Last reported at 2018-Jun-04 19:09 UTC. Time now 2018-Jun-19 10:25 UTC.
Position N 01°21' E 103°17'.
Warning: this ship's position is 14 days out of date.

Length 190 m; draft 11.9 m.

Type: Cargo ship. MMSI: 477766200.

Date/timePositionNaut miles runAvg speedWind from/ knotsBaromVisibWave heightAir tempDewpointWater temp
2018-Jun-04 19:09N 01°21' E 103°17'512.4
2018-Jun-04 18:47N 01°18' E 103°21'412.3
2018-Jun-04 18:27N 01°15' E 103°24'612.2
2018-Jun-04 17:58N 01°13' E 103°30'612.7
2018-Jun-04 17:30N 01°12' E 103°35'611.8
2018-Jun-04 17:00N 01°10' E 103°41'511.1
2018-Jun-04 16:30N 01°09' E 103°46'612.0
2018-Jun-04 15:59N 01°12' E 103°52'3 6.6
2018-Jun-04 15:30N 01°14' E 103°54'1 2.1
2018-Jun-04 15:00N 01°15' E 103°53'0 0.0
2018-Jun-04 14:13N 01°15' E 103°53'0 0.0
2018-Jun-04 13:55N 01°15' E 103°53'0 0.0
2018-Jun-04 13:30N 01°15' E 103°53'0 0.0
2018-Jun-04 13:00N 01°15' E 103°53'0 0.0
2018-Jun-04 12:22N 01°15' E 103°53'0 0.0
2018-Jun-04 11:55N 01°15' E 103°53'0 0.0
2018-Jun-04 11:28N 01°15' E 103°53'0 0.0
2018-Jun-04 10:58N 01°15' E 103°53'0 0.0
2018-Jun-04 10:25N 01°15' E 103°53'0 0.0
2018-Jun-04 09:58N 01°15' E 103°53'0 0.1
2018-Jun-04 09:10N 01°15' E 103°53'0 0.2
2018-Jun-04 08:46N 01°15' E 103°54'0 0.0
2018-Jun-04 08:25N 01°15' E 103°54'0 0.1
2018-Jun-04 07:49N 01°15' E 103°54'0 0.0
2018-Jun-04 07:28N 01°15' E 103°54'0 0.0
2018-Jun-04 06:58N 01°15' E 103°54'0 0.1
2018-Jun-04 06:28N 01°15' E 103°54'0 0.0
2018-Jun-04 05:58N 01°15' E 103°54'0 0.0
2018-Jun-04 05:28N 01°15' E 103°54'0 0.0
2018-Jun-04 05:00N 01°15' E 103°54'0 0.1
2018-Jun-04 04:25N 01°15' E 103°53'0 0.0
2018-Jun-04 03:57N 01°15' E 103°53'0 0.0
2018-Jun-04 03:24N 01°15' E 103°53'0 0.1
2018-Jun-04 02:52N 01°15' E 103°53'0 0.0
2018-Jun-04 02:28N 01°15' E 103°53'0 0.1
2018-Jun-04 01:55N 01°15' E 103°53'0 0.0
2018-Jun-04 01:30N 01°15' E 103°53'0 0.1
2018-Jun-04 00:55N 01°15' E 103°54'0 0.0
2018-Jun-04 00:28N 01°15' E 103°54'0 0.0
2018-Jun-03 23:52N 01°15' E 103°54'0 0.2
2018-Jun-03 23:28N 01°15' E 103°54'0 0.0
2018-Jun-03 22:58N 01°15' E 103°54'0 0.1
2018-Jun-03 22:22N 01°15' E 103°54'0 0.3
2018-Jun-03 22:01N 01°15' E 103°54'2 3.0
2018-Jun-03 21:29N 01°14' E 103°54'1 2.5
2018-Jun-03 20:59N 01°14' E 103°55'3 6.4
2018-Jun-03 20:30N 01°15' E 103°58'5 8.0
2018-Jun-03 19:54N 01°16' E 104°03'4 8.7
2018-Jun-03 19:28N 01°16' E 104°07'4 8.7
2018-Jun-03 19:00N 01°17' E 104°11'4 8.7
2018-Jun-03 18:30N 01°18' E 104°15'5 8.8
2018-Jun-03 17:57N 01°19' E 104°20'4 9.3
2018-Jun-03 17:30N 01°22' E 104°23'  
2018-May-29 09:56N 23°18' E 117°28'512.1
2018-May-29 09:30N 23°22' E 117°32'812.2
2018-May-29 08:52N 23°25' E 117°39'512.5
2018-May-29 08:30N 23°29' E 117°43'712.6
2018-May-29 07:59N 23°33' E 117°48'712.6
2018-May-29 07:26N 23°37' E 117°55'612.8
2018-May-29 07:00N 23°40' E 117°59'712.8
2018-May-29 06:26N 23°45' E 118°05'  
2018-May-27 01:45N 31°28' E 121°28'310.6
2018-May-27 01:30N 31°29' E 121°25'2 3.9
2018-May-27 00:59N 31°30' E 121°23'0 0.0
2018-May-27 00:30N 31°30' E 121°23'0 0.0
2018-May-27 00:00N 31°30' E 121°23'0 0.0
2018-May-26 23:25N 31°30' E 121°23'0 0.0
2018-May-26 22:58N 31°30' E 121°23'0 0.0
2018-May-26 22:28N 31°30' E 121°23'0 0.0
2018-May-26 21:58N 31°30' E 121°23'0 0.0
2018-May-26 21:25N 31°30' E 121°23'0 0.0
2018-May-26 20:46N 31°30' E 121°23'0 0.0
2018-May-26 20:25N 31°30' E 121°23'0 0.0
2018-May-26 19:55N 31°30' E 121°23'0 0.0
2018-May-26 19:25N 31°30' E 121°23'0 0.0
2018-May-26 18:55N 31°30' E 121°23'0 0.0
2018-May-26 18:25N 31°30' E 121°23'0 0.0
2018-May-26 17:58N 31°30' E 121°23'0 0.0
2018-May-26 17:28N 31°30' E 121°23'0 0.0
2018-May-26 16:58N 31°30' E 121°23'0 0.0
2018-May-26 16:28N 31°30' E 121°23'0 0.0
2018-May-26 15:55N 31°30' E 121°23'0 0.0
2018-May-26 15:28N 31°30' E 121°23'0 0.0
2018-May-26 14:49N 31°30' E 121°23'0 0.0
2018-May-26 14:25N 31°30' E 121°23'0 0.0
2018-May-26 13:58N 31°30' E 121°23'0 0.0
2018-May-26 13:28N 31°30' E 121°23'0 0.0
2018-May-26 12:58N 31°30' E 121°23'0 0.0
2018-May-26 12:28N 31°30' E 121°23'0 0.0
2018-May-26 11:55N 31°30' E 121°23'0 0.0
2018-May-26 11:25N 31°30' E 121°23'0 0.0
2018-May-26 10:58N 31°30' E 121°23'0 0.0
2018-May-26 10:25N 31°30' E 121°23'0 0.0
2018-May-26 09:58N 31°30' E 121°23'0 0.0
2018-May-26 09:28N 31°30' E 121°23'0 0.0
2018-May-26 08:58N 31°30' E 121°23'0 0.0
2018-May-26 08:25N 31°30' E 121°23'0 0.0
2018-May-26 07:58N 31°30' E 121°23'0 0.0
2018-May-26 07:25N 31°30' E 121°23'0 0.0
2018-May-26 06:58N 31°30' E 121°23'0 0.0
2018-May-26 06:28N 31°30' E 121°23'0 0.0
2018-May-26 05:28N 31°30' E 121°23'0 0.0
2018-May-26 04:58N 31°30' E 121°23'0 0.0
2018-May-26 04:28N 31°30' E 121°23'0 0.0
2018-May-26 03:55N 31°30' E 121°23'0 0.0
2018-May-26 03:25N 31°30' E 121°23'0 0.0
2018-May-26 02:55N 31°30' E 121°23'0 0.0
2018-May-26 02:28N 31°30' E 121°23'0 0.0
2018-May-26 01:59N 31°30' E 121°23'0 0.0
2018-May-26 01:25N 31°30' E 121°23'0 0.0
2018-May-26 00:55N 31°30' E 121°23'0 0.0
2018-May-26 00:25N 31°30' E 121°23'0 0.0
2018-May-25 23:55N 31°30' E 121°23'0 0.0
2018-May-25 23:28N 31°30' E 121°23'0 0.0
2018-May-25 22:58N 31°30' E 121°23'0 0.0
2018-May-25 22:25N 31°30' E 121°23'0 0.0
2018-May-25 21:58N 31°30' E 121°23'0 0.0
2018-May-25 21:28N 31°30' E 121°23'0 0.0
2018-May-25 20:55N 31°30' E 121°23'0 0.0
2018-May-25 20:28N 31°30' E 121°23'0 0.0
2018-May-25 19:55N 31°30' E 121°23'0 0.0
2018-May-25 19:19N 31°30' E 121°23'  

Dump ship's entire track history